»·PEaware :: DAL404 KSGR-KDFW

DAL404 :: KSGR-KDFW

FLIGHT INFORMATION

Flight Status: Arrived
Operator:
Delta Air Lines
More flights by this operator :: More flights under this callsign
Pilot: Wadhah A. (6578)
Aircraft: MCDONNELL-DOUGLAS MD-88
(MD88)
More flights by this aircraft type
Origin: KSGR Sugar Land Mun/Hull
United States
Destination: KDFW Dallas-Ft Worth Intl
United States
More flights between these airports :: More routes between these airports
Route: CRIED7 CRIED CQY8
File this flight plan on PilotEdge
Remarks:
Altitude:
(Current/Filed)
28,000ft
Speed:
(Current/Filed)
450kts
Departed: 30-Dec-15 08:41 PM
Arrived: 30-Dec-15 09:28 PM
Distance/Time
Traveled:
209nm/0:47
Distance/Time
To Go:
Arrived

Flight Plot

Page will automatically refresh every two minutes.


Map Options




Map Legend


Flown Route
Filed Route
Departure Airport
Arrival Airport
Navaid (VOR, NDB)
Fix

Horizontal Profiles

Position Reports

Time Latitude Longitude Heading Altitude Ground
Speed
30-Dec-15 20:29 29.623908 -95.652517 180 85ft 0kts
30-Dec-15 20:30 29.623908 -95.652517 180 85ft 0kts
30-Dec-15 20:31 29.623908 -95.652517 180 85ft 0kts
30-Dec-15 20:32 29.623704 -95.653345 292 85ft 11kts
30-Dec-15 20:33 29.623102 -95.656013 175 85ft 18kts
30-Dec-15 20:34 29.615751 -95.655309 175 85ft 22kts
30-Dec-15 20:35 29.612117 -95.654962 175 85ft 5kts
30-Dec-15 20:36 29.612418 -95.655606 354 85ft 16kts
30-Dec-15 20:37 29.647618 -95.659215 4 1275ft 194kts
30-Dec-15 20:38 29.712799 -95.646546 10 3774ft 252kts
30-Dec-15 20:39 29.781329 -95.626282 13 6851ft 267kts
30-Dec-15 20:40 29.854302 -95.598752 13 9794ft 293kts
30-Dec-15 20:41 29.943237 -95.566484 12 11331ft 363kts
30-Dec-15 20:42 30.042935 -95.532674 12 14042ft 384kts
30-Dec-15 20:43 30.146688 -95.495942 12 16612ft 401kts
30-Dec-15 20:44 30.255055 -95.473507 359 18983ft 407kts
30-Dec-15 20:45 30.360375 -95.466523 353 21059ft 414kts
30-Dec-15 20:46 30.473454 -95.465124 351 23098ft 425kts
30-Dec-15 20:47 30.587104 -95.467172 350 25461ft 422kts
30-Dec-15 20:48 30.686632 -95.469261 336 27385ft 405kts
30-Dec-15 20:49 30.772934 -95.525811 331 28036ft 371kts
30-Dec-15 20:50 30.882877 -95.553894 338 28036ft 442kts
30-Dec-15 20:51 31.006409 -95.581901 339 28037ft 459kts
30-Dec-15 20:52 31.130775 -95.610236 339 28045ft 458kts
30-Dec-15 20:53 31.254982 -95.638614 339 28051ft 458kts
30-Dec-15 20:54 31.378922 -95.667003 339 28078ft 457kts
30-Dec-15 20:55 31.502571 -95.695395 338 28064ft 452kts
30-Dec-15 20:56 31.619193 -95.722262 338 28048ft 449kts
30-Dec-15 20:57 31.727341 -95.777524 317 28043ft 420kts
30-Dec-15 20:58 31.821764 -95.855468 311 27897ft 415kts
30-Dec-15 20:59 31.913156 -95.942768 309 26016ft 411kts
30-Dec-15 21:00 31.994094 -96.029107 307 23509ft 382kts
30-Dec-15 21:01 32.067045 -96.112938 302 20966ft 360kts
30-Dec-15 21:02 32.138725 -96.185301 319 18198ft 376kts
30-Dec-15 21:03 32.219612 -96.256508 308 15226ft 353kts
30-Dec-15 21:04 32.289041 -96.335553 309 12226ft 339kts
30-Dec-15 21:05 32.353126 -96.408705 311 10483ft 301kts
30-Dec-15 21:06 32.406952 -96.471377 310 9686ft 260kts
30-Dec-15 21:07 32.448161 -96.522875 294 8152ft 254kts
30-Dec-15 21:08 32.459515 -96.603481 275 6675ft 251kts
30-Dec-15 21:09 32.462582 -96.686410 275 6004ft 252kts
30-Dec-15 21:10 32.465332 -96.765277 275 5989ft 216kts
30-Dec-15 21:11 32.467138 -96.834694 275 6003ft 213kts
30-Dec-15 21:12 32.474536 -96.902986 305 6028ft 207kts
30-Dec-15 21:13 32.505115 -96.955809 309 6003ft 175kts
30-Dec-15 21:14 32.534416 -97.001904 308 6005ft 175kts
30-Dec-15 21:15 32.563565 -97.039300 9 6030ft 181kts
30-Dec-15 21:16 32.612785 -97.029433 1 5589ft 180kts
30-Dec-15 21:17 32.660454 -97.027522 359 4774ft 152kts
30-Dec-15 21:18 32.701056 -97.027124 359 4055ft 150kts
30-Dec-15 21:19 32.741256 -97.026888 0 3291ft 139kts
30-Dec-15 21:20 32.779784 -97.026675 0 2574ft 142kts
30-Dec-15 21:21 32.819685 -97.026468 0 1794ft 139kts
30-Dec-15 21:22 32.857093 -97.026365 0 1060ft 130kts
30-Dec-15 21:23 32.892353 -97.026131 0 612ft 87kts
30-Dec-15 21:24 32.900678 -97.027734 322 612ft 11kts
30-Dec-15 21:25 32.901134 -97.033761 269 612ft 18kts
30-Dec-15 21:26 32.900201 -97.036631 207 612ft 0kts
30-Dec-15 21:27 32.900186 -97.036640 207 612ft 0kts
30-Dec-15 21:28 32.900186 -97.036640 207 612ft 0kts
30-Dec-15 21:29 32.900186 -97.036640 207 612ft 0kts

Navigation Log

Ident Type
1. KSGR Airport
2. LITLD Fix
3. STELL Fix
4. CRIED Fix
5. CQY Navaid
6. HOWDY Fix
7. BELLS Fix
8. TACKE Fix
9. KDFW Airport